createdAt,value
2018-02-03T00:02:14.706Z,5.53
2018-02-03T00:04:42.804Z,5.20
2018-02-03T00:07:10.842Z,4.73
2018-02-03T00:09:40.778Z,5.67
2018-02-03T00:12:08.830Z,5.73
2018-02-03T00:14:37.653Z,5.73
2018-02-03T00:17:05.831Z,5.90
2018-02-03T00:19:33.890Z,6.10
2018-02-03T00:22:02.703Z,5.10
2018-02-03T00:24:30.757Z,5.23
2018-02-03T00:26:59.608Z,7.13
2018-02-03T00:29:27.661Z,4.67
2018-02-03T00:31:55.719Z,5.40
2018-02-03T00:34:23.770Z,4.80
2018-02-03T00:36:52.589Z,4.50
2018-02-03T00:39:20.649Z,5.37
2018-02-03T00:41:48.778Z,5.27
2018-02-03T00:44:16.843Z,6.03
2018-02-03T00:46:44.890Z,5.28
2018-02-03T00:49:13.002Z,5.40
2018-02-03T00:51:41.047Z,7.10
2018-02-03T00:54:09.119Z,5.70
2018-02-03T00:56:37.196Z,5.00
2018-02-03T00:59:05.257Z,6.30
2018-02-03T01:01:34.069Z,6.00
2018-02-03T01:04:02.194Z,5.90
2018-02-03T01:06:30.281Z,6.77
2018-02-03T01:08:59.853Z,5.93
2018-02-03T01:11:28.762Z,5.70
2018-02-03T01:13:56.841Z,5.27
2018-02-03T01:16:24.900Z,5.73
2018-02-03T01:18:52.993Z,6.40
2018-02-03T01:21:21.055Z,5.97
2018-02-03T01:23:49.123Z,6.78
2018-02-03T01:26:17.173Z,5.93
2018-02-03T01:28:45.239Z,6.57
2018-02-03T01:31:14.053Z,5.77
2018-02-03T01:33:42.109Z,6.03
2018-02-03T01:36:12.047Z,7.57
2018-02-03T01:38:41.281Z,6.50
2018-02-03T01:41:09.322Z,5.27
2018-02-03T01:43:37.389Z,6.17
2018-02-03T01:46:05.525Z,6.87
2018-02-03T01:48:33.578Z,6.53
2018-02-03T01:51:01.631Z,6.83
2018-02-03T01:53:29.680Z,5.73
2018-02-03T01:55:59.057Z,6.57
2018-02-03T01:58:27.136Z,7.33
2018-02-03T02:00:55.405Z,7.63
2018-02-03T02:03:23.486Z,7.85
2018-02-03T02:05:51.559Z,7.20
2018-02-03T02:08:19.644Z,6.80
2018-02-03T02:10:47.702Z,6.57
2018-02-03T02:13:15.850Z,7.12
2018-02-03T02:15:43.900Z,6.90
2018-02-03T02:18:12.757Z,7.57
2018-02-03T02:20:41.707Z,7.53
2018-02-03T02:23:11.641Z,7.12
2018-02-03T02:25:39.701Z,7.10
2018-02-03T02:28:07.770Z,9.30
2018-02-03T02:30:36.601Z,6.20
2018-02-03T02:33:04.689Z,7.90
2018-02-03T02:35:32.742Z,6.77
2018-02-03T02:38:00.822Z,8.00
2018-02-03T02:40:28.917Z,6.90
2018-02-03T02:42:56.966Z,8.30
2018-02-03T02:45:25.041Z,7.60
2018-02-03T02:47:53.105Z,7.43
2018-02-03T02:50:21.169Z,7.80
2018-02-03T02:52:49.985Z,7.57
2018-02-03T02:55:18.037Z,7.27
2018-02-03T02:57:47.254Z,6.28
2018-02-03T03:00:15.309Z,7.17
2018-02-03T03:02:44.160Z,6.57
2018-02-03T03:05:12.265Z,7.13
2018-02-03T03:07:40.322Z,7.20
2018-02-03T03:10:08.382Z,7.33
2018-02-03T03:12:36.477Z,7.57
2018-02-03T03:15:04.538Z,7.03
2018-02-03T03:17:32.586Z,7.57
2018-02-03T03:20:00.656Z,7.23
2018-02-03T03:22:28.726Z,8.50
2018-02-03T03:24:57.562Z,7.67
2018-02-03T03:27:25.614Z,8.00
2018-02-03T03:29:53.685Z,6.30
2018-02-03T03:32:21.802Z,8.03
2018-02-03T03:34:49.869Z,7.03
2018-02-03T03:37:17.950Z,7.30
2018-02-03T03:39:46.028Z,6.33
2018-02-03T03:42:14.071Z,8.30
2018-02-03T03:44:42.598Z,7.65
2018-02-03T03:47:10.666Z,7.13
2018-02-03T03:49:38.750Z,7.30
2018-02-03T03:52:06.785Z,7.43
2018-02-03T03:54:34.898Z,8.00
2018-02-03T03:57:02.959Z,6.67
2018-02-03T03:59:31.062Z,7.70
2018-02-03T04:01:59.130Z,7.53
2018-02-03T04:04:27.217Z,8.97
2018-02-03T04:06:55.385Z,9.70
2018-02-03T04:09:23.450Z,8.40
2018-02-03T04:11:51.517Z,8.57
2018-02-03T04:14:19.618Z,7.20
2018-02-03T04:16:47.665Z,6.82
2018-02-03T04:19:15.733Z,8.80
2018-02-03T04:21:43.779Z,7.00
2018-02-03T04:24:13.783Z,8.00
2018-02-03T04:26:43.064Z,7.83
2018-02-03T04:29:11.250Z,9.23
2018-02-03T04:31:39.310Z,8.47
2018-02-03T04:34:07.382Z,8.03
2018-02-03T04:36:35.473Z,8.73
2018-02-03T04:39:03.522Z,9.00
2018-02-03T04:41:31.614Z,7.80
2018-02-03T04:43:59.661Z,7.93
2018-02-03T04:46:27.721Z,9.53
2018-02-03T04:48:56.545Z,7.37
2018-02-03T04:51:24.601Z,9.33
2018-02-03T04:53:52.652Z,9.60
2018-02-03T04:56:21.484Z,9.03
2018-02-03T04:58:49.549Z,9.67
2018-02-03T05:01:17.604Z,8.47
2018-02-03T05:03:46.421Z,7.17
2018-02-03T05:06:14.506Z,7.60
2018-02-03T05:08:44.121Z,8.60
2018-02-03T05:11:14.065Z,8.03
2018-02-03T05:13:43.266Z,8.50
2018-02-03T05:16:11.325Z,8.10
2018-02-03T05:18:39.380Z,7.90
2018-02-03T05:21:07.457Z,8.45
2018-02-03T05:23:35.565Z,7.90
2018-02-03T05:26:03.661Z,9.10
2018-02-03T05:28:31.734Z,8.17
2018-02-03T05:30:59.893Z,8.93
2018-02-03T05:33:27.980Z,7.60
2018-02-03T05:35:56.074Z,8.80
2018-02-03T05:38:24.133Z,8.50
2018-02-03T05:40:52.196Z,8.63
2018-02-03T05:43:20.263Z,7.33
2018-02-03T05:45:48.318Z,9.23
2018-02-03T05:48:16.371Z,8.57
2018-02-03T05:50:45.197Z,8.50
2018-02-03T05:53:13.921Z,8.32
2018-02-03T05:55:41.997Z,7.63
2018-02-03T05:58:10.800Z,8.87
2018-02-03T06:00:38.866Z,8.77
2018-02-03T06:03:06.929Z,7.60
2018-02-03T06:05:34.983Z,8.77
2018-02-03T06:08:03.034Z,10.55
2018-02-03T06:10:31.886Z,7.90
2018-02-03T06:12:59.945Z,9.40
2018-02-03T06:15:28.001Z,9.70
2018-02-03T06:17:56.102Z,8.60
2018-02-03T06:20:24.181Z,7.67
2018-02-03T06:22:52.233Z,7.93
2018-02-03T06:25:20.305Z,7.73
2018-02-03T06:27:48.349Z,8.30
2018-02-03T06:30:17.173Z,8.63
2018-02-03T06:32:45.230Z,8.27
2018-02-03T06:35:14.795Z,9.53
2018-02-03T06:37:42.865Z,8.00
2018-02-03T06:40:10.945Z,6.95
2018-02-03T06:42:39.017Z,8.17
2018-02-03T06:45:07.093Z,8.60
2018-02-03T06:47:35.160Z,8.13
2018-02-03T06:50:03.221Z,7.40
2018-02-03T06:52:31.283Z,7.00
2018-02-03T06:54:59.331Z,7.20
2018-02-03T06:57:28.894Z,8.43
2018-02-03T06:59:57.013Z,7.47
2018-02-03T07:02:25.169Z,8.07
2018-02-03T07:04:53.217Z,7.13
2018-02-03T07:07:21.321Z,7.67
2018-02-03T07:09:49.437Z,6.18
2018-02-03T07:12:18.276Z,9.00
2018-02-03T07:14:46.351Z,9.40
2018-02-03T07:17:15.277Z,7.87
2018-02-03T07:19:43.325Z,6.93
2018-02-03T07:22:11.379Z,7.00
2018-02-03T07:24:39.439Z,7.20
2018-02-03T07:27:08.302Z,7.60
2018-02-03T07:29:36.358Z,6.07
2018-02-03T07:32:04.511Z,7.53
2018-02-03T07:34:32.567Z,7.67
2018-02-03T07:37:01.409Z,7.20
2018-02-03T07:39:29.484Z,6.77
2018-02-03T07:41:57.565Z,6.97
2018-02-03T07:44:25.629Z,6.53
2018-02-03T07:46:53.693Z,6.13
2018-02-03T07:49:21.757Z,6.73
2018-02-03T07:51:49.826Z,7.07
2018-02-03T07:54:17.885Z,7.03
2018-02-03T07:56:46.705Z,8.77
2018-02-03T07:59:15.753Z,7.03
2018-02-03T08:01:43.806Z,7.27
2018-02-03T08:04:11.931Z,6.20
2018-02-03T08:06:40.745Z,7.40
2018-02-03T08:09:08.825Z,7.05
2018-02-03T08:11:37.137Z,7.00
2018-02-03T08:14:05.326Z,6.60
2018-02-03T08:16:33.438Z,7.23
2018-02-03T08:19:02.394Z,8.50
2018-02-03T08:21:30.481Z,7.93
2018-02-03T08:23:58.573Z,6.50
2018-02-03T08:26:26.729Z,8.07
2018-02-03T08:28:55.582Z,7.33
2018-02-03T08:31:23.676Z,8.00
2018-02-03T08:33:51.829Z,7.50
2018-02-03T08:36:20.256Z,7.70
2018-02-03T08:38:48.295Z,6.63
2018-02-03T08:41:16.401Z,8.23
2018-02-03T08:43:44.457Z,7.90
2018-02-03T08:46:13.174Z,7.10
2018-02-03T08:48:41.241Z,7.22
2018-02-03T08:51:09.317Z,8.67
2018-02-03T08:53:37.384Z,7.47
2018-02-03T08:56:05.445Z,7.73
2018-02-03T08:58:33.522Z,8.60
2018-02-03T09:01:01.678Z,7.00
2018-02-03T09:03:29.685Z,8.40
2018-02-03T09:05:57.741Z,6.77
2018-02-03T09:08:25.806Z,8.20
2018-02-03T09:10:55.372Z,7.40
2018-02-03T09:13:24.561Z,6.87
2018-02-03T09:15:52.627Z,8.27
2018-02-03T09:18:20.702Z,7.50
2018-02-03T09:20:48.753Z,8.23
2018-02-03T09:23:16.809Z,8.30
2018-02-03T09:25:45.667Z,7.30
2018-02-03T09:28:13.749Z,6.80
2018-02-03T09:30:41.814Z,8.40
2018-02-03T09:33:09.906Z,7.33
2018-02-03T09:35:37.988Z,7.20
2018-02-03T09:38:06.057Z,7.67
2018-02-03T09:40:34.117Z,7.43
2018-02-03T09:43:02.177Z,7.93
2018-02-03T09:45:30.298Z,7.68
2018-02-03T09:47:58.357Z,8.27
2018-02-03T09:50:26.409Z,8.03
2018-02-03T09:52:56.534Z,7.93
2018-02-03T09:55:25.829Z,7.75
2018-02-03T09:57:55.057Z,7.77
2018-02-03T10:00:23.141Z,7.40
2018-02-03T10:02:51.206Z,6.73
2018-02-03T10:05:19.254Z,6.10
2018-02-03T10:07:47.309Z,5.97
2018-02-03T10:10:16.125Z,6.97
2018-02-03T10:12:44.238Z,8.13
2018-02-03T10:15:12.291Z,7.33
2018-02-03T10:17:40.383Z,8.40
2018-02-03T10:20:08.430Z,6.90
2018-02-03T10:22:36.585Z,8.20
2018-02-03T10:25:05.421Z,6.90
2018-02-03T10:27:33.502Z,5.97
2018-02-03T10:30:01.589Z,7.37
2018-02-03T10:32:29.644Z,7.80
2018-02-03T10:34:57.707Z,8.43
2018-02-03T10:37:25.817Z,7.77
2018-02-03T10:39:53.872Z,6.87
2018-02-03T10:42:21.949Z,7.40
2018-02-03T10:44:50.033Z,7.27
2018-02-03T10:47:18.097Z,6.40
2018-02-03T10:49:46.162Z,6.67
2018-02-03T10:52:14.233Z,7.70
2018-02-03T10:54:42.285Z,6.07
2018-02-03T10:57:11.110Z,7.10
2018-02-03T10:59:39.161Z,6.40
2018-02-03T11:02:08.622Z,6.93
2018-02-03T11:04:36.697Z,6.37
2018-02-03T11:07:04.774Z,6.50
2018-02-03T11:09:32.829Z,6.20
2018-02-03T11:12:00.904Z,6.97
2018-02-03T11:14:29.057Z,6.13
2018-02-03T11:16:57.334Z,6.20
2018-02-03T11:19:26.385Z,6.20
2018-02-03T11:21:54.449Z,5.63
2018-02-03T11:24:22.497Z,6.63
2018-02-03T11:26:50.562Z,6.23
2018-02-03T11:29:19.368Z,6.03
2018-02-03T11:31:47.486Z,6.90
2018-02-03T11:34:15.541Z,6.77
2018-02-03T11:36:43.610Z,7.00
2018-02-03T11:39:11.861Z,7.03
2018-02-03T11:41:39.872Z,6.33
2018-02-03T11:44:07.965Z,7.23
2018-02-03T11:46:36.116Z,6.73
2018-02-03T11:49:04.293Z,6.60
2018-02-03T11:51:32.349Z,6.50
2018-02-03T11:54:01.710Z,6.70
2018-02-03T11:56:29.773Z,6.90
2018-02-03T11:58:57.857Z,6.33
2018-02-03T12:01:26.673Z,6.75
2018-02-03T12:03:54.730Z,6.93
2018-02-03T12:06:22.773Z,6.00
2018-02-03T12:08:50.834Z,7.00
2018-02-03T12:11:19.181Z,7.03
2018-02-03T12:13:48.002Z,6.37
2018-02-03T12:16:16.837Z,6.10
2018-02-03T12:18:44.896Z,6.77
2018-02-03T12:21:12.945Z,5.90
2018-02-03T12:23:41.782Z,7.67
2018-02-03T12:26:09.836Z,5.30
2018-02-03T12:28:37.888Z,6.27
2018-02-03T12:31:06.733Z,6.53
2018-02-03T12:33:34.803Z,5.72
2018-02-03T12:36:02.841Z,5.40
2018-02-03T12:38:31.677Z,7.50
2018-02-03T12:40:59.832Z,7.80
2018-02-03T12:43:27.876Z,6.33
2018-02-03T12:45:57.809Z,6.63
2018-02-03T12:48:27.757Z,5.30
2018-02-03T12:50:56.912Z,6.07
2018-02-03T12:53:25.744Z,5.70
2018-02-03T12:55:53.793Z,4.40
2018-02-03T12:58:22.610Z,5.87
2018-02-03T13:00:50.653Z,6.57
2018-02-03T13:03:19.501Z,5.43
2018-02-03T13:05:47.561Z,6.33
2018-02-03T13:08:15.661Z,6.70
2018-02-03T13:10:43.733Z,5.87
2018-02-03T13:13:11.775Z,5.70
2018-02-03T13:15:39.895Z,5.40
2018-02-03T13:18:07.957Z,4.87
2018-02-03T13:20:36.013Z,4.53
2018-02-03T13:23:04.065Z,6.10
2018-02-03T13:25:32.897Z,5.85
2018-02-03T13:28:00.977Z,5.17
2018-02-03T13:30:29.034Z,5.37
2018-02-03T13:32:57.441Z,5.50
2018-02-03T13:35:25.532Z,6.73
2018-02-03T13:37:53.603Z,5.93
2018-02-03T13:40:21.673Z,5.97
2018-02-03T13:42:49.723Z,7.17
2018-02-03T13:45:17.836Z,6.30
2018-02-03T13:47:45.909Z,6.57
2018-02-03T13:50:13.989Z,6.43
2018-02-03T13:52:42.066Z,5.93
2018-02-03T13:55:10.116Z,6.90
2018-02-03T13:57:38.175Z,8.30
2018-02-03T14:00:06.221Z,6.23
2018-02-03T14:02:34.286Z,7.23
2018-02-03T14:05:02.348Z,16.03
2018-02-03T14:07:30.414Z,6.60
2018-02-03T14:09:58.491Z,7.40
2018-02-03T14:12:27.665Z,6.03
2018-02-03T14:14:55.712Z,7.00
2018-02-03T14:17:24.529Z,7.50
2018-02-03T14:19:53.453Z,6.47
2018-02-03T14:22:21.532Z,7.90
2018-02-03T14:24:52.386Z,6.03
2018-02-03T14:27:20.450Z,6.57
2018-02-03T14:29:48.501Z,6.93
2018-02-03T14:32:16.669Z,7.73
2018-02-03T14:34:44.713Z,6.73
2018-02-03T14:37:12.862Z,6.12
2018-02-03T14:39:40.917Z,6.80
2018-02-03T14:42:09.011Z,6.97
2018-02-03T14:44:37.062Z,5.60
2018-02-03T14:47:05.173Z,6.70
2018-02-03T14:49:33.238Z,6.30
2018-02-03T14:52:01.314Z,7.20
2018-02-03T14:54:29.366Z,6.43
2018-02-03T14:56:57.995Z,6.05
2018-02-03T14:59:26.073Z,6.27
2018-02-03T15:01:54.139Z,6.40
2018-02-03T15:04:22.193Z,5.90
2018-02-03T15:06:50.282Z,6.40
2018-02-03T15:09:18.358Z,6.90
2018-02-03T15:11:46.432Z,6.53
2018-02-03T15:14:14.514Z,7.63
2018-02-03T15:16:42.609Z,6.03
2018-02-03T15:19:10.758Z,6.93
2018-02-03T15:21:38.837Z,6.80
2018-02-03T15:24:06.914Z,7.33
2018-02-03T15:26:35.002Z,8.13
2018-02-03T15:29:03.173Z,7.00
2018-02-03T15:31:31.225Z,7.23
2018-02-03T15:33:59.326Z,6.40
2018-02-03T15:36:28.324Z,7.22
2018-02-03T15:38:56.396Z,15.37
2018-02-03T15:41:24.481Z,8.60
2018-02-03T15:43:52.554Z,8.70
2018-02-03T15:46:20.635Z,8.17
2018-02-03T15:48:48.706Z,6.83
2018-02-03T15:51:16.784Z,6.03
2018-02-03T15:53:44.846Z,7.10
2018-02-03T15:56:12.901Z,7.70
2018-02-03T15:58:40.979Z,7.20
2018-02-03T16:01:09.070Z,6.33
2018-02-03T16:03:37.150Z,7.43
2018-02-03T16:06:05.198Z,6.67
2018-02-03T16:08:33.318Z,7.35
2018-02-03T16:11:01.369Z,8.43
2018-02-03T16:13:29.486Z,7.43
2018-02-03T16:15:58.529Z,7.80
2018-02-03T16:18:26.608Z,7.57
2018-02-03T16:20:54.657Z,7.83
2018-02-03T16:23:23.527Z,7.50
2018-02-03T16:25:51.597Z,7.72
2018-02-03T16:28:19.666Z,7.43
2018-02-03T16:30:47.741Z,9.97
2018-02-03T16:33:15.797Z,8.07
2018-02-03T16:35:43.895Z,6.50
2018-02-03T16:38:11.955Z,7.23
2018-02-03T16:40:40.116Z,9.40
2018-02-03T16:43:08.165Z,8.63
2018-02-03T16:45:36.988Z,8.37
2018-02-03T16:48:05.097Z,8.03
2018-02-03T16:50:33.169Z,8.55
2018-02-03T16:53:01.222Z,8.90
2018-02-03T16:55:29.534Z,8.40
2018-02-03T16:57:58.736Z,7.50
2018-02-03T17:00:26.794Z,7.70
2018-02-03T17:02:54.882Z,7.47
2018-02-03T17:05:22.945Z,8.77
2018-02-03T17:07:51.026Z,7.87
2018-02-03T17:10:19.078Z,5.07
2018-02-03T17:12:47.141Z,3.17
2018-02-03T17:15:15.257Z,3.37
2018-02-03T17:17:43.274Z,2.83
2018-02-03T17:20:12.132Z,3.73
2018-02-03T17:22:40.211Z,2.60
2018-02-03T17:25:08.266Z,2.83
2018-02-03T17:27:36.357Z,2.53
2018-02-03T17:30:04.428Z,3.20
2018-02-03T17:32:32.507Z,3.20
2018-02-03T17:35:00.582Z,4.10
2018-02-03T17:37:34.825Z,3.58
2018-02-03T17:40:02.887Z,3.20
2018-02-03T17:42:30.938Z,2.93
2018-02-03T17:45:04.962Z,3.80
2018-02-03T17:47:33.093Z,3.17
2018-02-03T17:50:01.217Z,4.27
2018-02-03T17:52:29.393Z,4.55
2018-02-03T17:54:57.455Z,2.97
2018-02-03T17:57:31.078Z,3.87
2018-02-03T18:00:00.149Z,3.87
2018-02-03T18:02:29.303Z,4.20
2018-02-03T18:04:57.449Z,3.40
2018-02-03T18:07:25.534Z,4.00
2018-02-03T18:09:54.437Z,3.90
2018-02-03T18:12:22.509Z,3.75
2018-02-03T18:14:50.557Z,4.80
2018-02-03T18:17:18.615Z,4.30
2018-02-03T18:19:47.454Z,4.30
2018-02-03T18:22:15.534Z,4.72
2018-02-03T18:24:43.593Z,5.30
2018-02-03T18:27:11.637Z,4.57
2018-02-03T18:29:39.696Z,5.07
2018-02-03T18:32:08.505Z,4.70
2018-02-03T18:34:36.641Z,4.47
2018-02-03T18:37:04.702Z,4.75
2018-02-03T18:39:32.769Z,4.43
2018-02-03T18:42:00.842Z,4.53
2018-02-03T18:44:29.753Z,5.30
2018-02-03T18:46:57.825Z,5.20
2018-02-03T18:49:25.879Z,5.60
2018-02-03T18:51:53.977Z,11.90
2018-02-03T18:54:22.046Z,6.30
2018-02-03T18:56:50.093Z,7.10
2018-02-03T18:59:18.153Z,5.63
2018-02-03T19:01:46.969Z,5.47
2018-02-03T19:04:15.021Z,5.80
2018-02-03T19:06:43.831Z,6.37
2018-02-03T19:09:11.909Z,5.93
2018-02-03T19:11:40.742Z,5.47
2018-02-03T19:14:08.783Z,6.47
2018-02-03T19:16:36.897Z,6.37
2018-02-03T19:19:04.973Z,5.57
2018-02-03T19:21:33.666Z,5.37
2018-02-03T19:24:01.699Z,5.33
2018-02-03T19:26:30.145Z,4.30
2018-02-03T19:28:58.305Z,3.70
2018-02-03T19:31:26.386Z,4.10
2018-02-03T19:33:54.469Z,3.63
2018-02-03T19:36:22.529Z,3.70
2018-02-03T19:38:50.644Z,4.37
2018-02-03T19:41:18.693Z,4.37
2018-02-03T19:43:46.745Z,4.57
2018-02-03T19:46:14.802Z,3.90
2018-02-03T19:48:42.847Z,4.30
2018-02-03T19:51:11.668Z,4.70
2018-02-03T19:53:39.709Z,5.07
2018-02-03T19:56:07.855Z,4.37
2018-02-03T19:58:35.925Z,4.90
2018-02-03T20:01:03.998Z,4.70
2018-02-03T20:03:32.033Z,5.00
2018-02-03T20:06:00.575Z,4.30
2018-02-03T20:08:28.651Z,5.03
2018-02-03T20:10:56.721Z,4.47
2018-02-03T20:13:24.812Z,4.90
2018-02-03T20:15:52.857Z,4.33
2018-02-03T20:18:20.996Z,5.27
2018-02-03T20:20:49.083Z,5.00
2018-02-03T20:23:17.901Z,5.13
2018-02-03T20:25:45.997Z,4.47
2018-02-03T20:28:14.072Z,4.70
2018-02-03T20:30:42.200Z,5.62
2018-02-03T20:33:11.092Z,5.90
2018-02-03T20:38:09.749Z,4.80
2018-02-03T20:40:37.841Z,5.37
2018-02-03T20:43:05.881Z,5.70
2018-02-03T20:45:33.991Z,4.97
2018-02-03T20:48:02.086Z,4.97
2018-02-03T20:50:30.867Z,5.12
2018-02-03T20:52:58.945Z,5.47
2018-02-03T20:55:27.027Z,5.57
2018-02-03T20:57:55.061Z,6.37
2018-02-03T21:00:23.129Z,6.73
2018-02-03T21:02:51.173Z,7.40
2018-02-03T21:05:20.002Z,7.33
2018-02-03T21:07:48.153Z,5.87
2018-02-03T21:10:17.012Z,6.33
2018-02-03T21:12:45.073Z,7.40
2018-02-03T21:15:13.173Z,6.30
2018-02-03T21:17:41.221Z,6.47
2018-02-03T21:20:09.325Z,7.00
2018-02-03T21:22:37.405Z,7.93
2018-02-03T21:25:05.457Z,7.65
2018-02-03T21:27:33.528Z,6.70
2018-02-03T21:30:01.648Z,8.83
2018-02-03T21:32:29.685Z,7.47
2018-02-03T21:34:57.830Z,8.30
2018-02-03T21:37:25.937Z,7.03
2018-02-03T21:39:54.038Z,7.27
2018-02-03T21:42:22.074Z,8.10
2018-02-03T21:44:50.135Z,7.50
2018-02-03T21:47:18.236Z,8.97
2018-02-03T21:49:46.368Z,8.73
2018-02-03T21:52:15.273Z,7.10
2018-02-03T21:54:44.160Z,9.03
2018-02-03T21:57:13.484Z,8.17
2018-02-03T21:59:41.592Z,8.00
2018-02-03T22:02:09.715Z,8.83
2018-02-03T22:04:37.765Z,7.80
2018-02-03T22:07:05.816Z,8.40
2018-02-03T22:09:33.898Z,9.90
2018-02-03T22:12:01.950Z,8.97
2018-02-03T22:14:30.128Z,8.10
2018-02-03T22:16:58.233Z,8.87
2018-02-03T22:19:26.297Z,9.03
2018-02-03T22:21:54.353Z,8.77
2018-02-03T22:24:22.451Z,9.13
2018-02-03T22:26:51.146Z,8.47
2018-02-03T22:29:19.214Z,8.80
2018-02-03T22:31:47.343Z,9.90
2018-02-03T22:34:15.478Z,9.10
2018-02-03T22:36:43.568Z,9.70
2018-02-03T22:39:11.941Z,11.03
2018-02-03T22:41:39.997Z,9.73
2018-02-03T22:44:08.078Z,10.23
2018-02-03T22:46:36.599Z,9.07
2018-02-03T22:49:04.645Z,10.00
2018-02-03T22:51:32.708Z,9.33
2018-02-03T22:54:02.700Z,10.30
2018-02-03T22:56:32.639Z,9.60
2018-02-03T22:59:01.812Z,9.07
2018-02-03T23:01:30.638Z,9.40
2018-02-03T23:03:58.694Z,10.87
2018-02-03T23:06:26.825Z,10.40
2018-02-03T23:08:54.898Z,10.60
2018-02-03T23:11:22.958Z,10.73
2018-02-03T23:13:51.014Z,9.48
2018-02-03T23:16:19.130Z,10.10
2018-02-03T23:18:47.186Z,10.70
2018-02-03T23:21:15.244Z,11.57
2018-02-03T23:23:43.292Z,13.13
2018-02-03T23:26:12.122Z,11.20
2018-02-03T23:28:40.178Z,10.30
2018-02-03T23:31:08.293Z,10.33
2018-02-03T23:33:36.357Z,11.70
2018-02-03T23:36:04.429Z,12.10
2018-02-03T23:38:32.492Z,13.93
2018-02-03T23:41:00.541Z,12.37
2018-02-03T23:43:29.393Z,12.10
2018-02-03T23:45:58.369Z,12.03
2018-02-03T23:48:26.434Z,13.97
2018-02-03T23:50:54.488Z,11.90
2018-02-03T23:53:24.205Z,12.07
2018-02-03T23:55:52.253Z,12.77
2018-02-03T23:58:20.318Z,12.27
